createdAt,value
2022-08-05T00:01:27.896Z,26.00
2022-08-05T00:03:57.089Z,25.90
2022-08-05T00:06:30.799Z,26.00
2022-08-05T00:09:00.964Z,26.00
2022-08-05T00:11:30.508Z,26.00
2022-08-05T00:14:12.645Z,25.90
2022-08-05T00:16:52.537Z,25.90
2022-08-05T00:19:22.255Z,25.90
2022-08-05T00:21:49.411Z,25.90
2022-08-05T00:24:19.179Z,25.90
2022-08-05T00:26:53.159Z,25.90
2022-08-05T00:29:22.802Z,25.90
2022-08-05T00:32:12.426Z,25.80
2022-08-05T00:34:56.409Z,25.80
2022-08-05T00:37:50.342Z,25.90
2022-08-05T00:40:14.681Z,25.80
2022-08-05T00:42:48.382Z,25.80
2022-08-05T00:45:16.785Z,25.80
2022-08-05T00:48:05.690Z,25.80
2022-08-05T00:50:32.865Z,25.80
2022-08-05T00:53:02.167Z,25.80
2022-08-05T00:55:34.176Z,25.80
2022-08-05T00:58:11.689Z,25.80
2022-08-05T01:00:39.629Z,25.80
2022-08-05T01:03:07.999Z,25.80
2022-08-05T01:05:35.634Z,25.80
2022-08-05T01:08:41.029Z,25.80
2022-08-05T01:10:55.639Z,25.80
2022-08-05T01:13:58.302Z,25.80
2022-08-05T01:16:47.353Z,25.70
2022-08-05T01:19:46.081Z,25.70
2022-08-05T01:22:42.869Z,25.70
2022-08-05T01:25:39.771Z,25.70
2022-08-05T01:28:26.175Z,25.70
2022-08-05T01:30:59.597Z,25.70
2022-08-05T01:33:36.055Z,25.70
2022-08-05T01:36:13.198Z,25.70
2022-08-05T01:38:45.633Z,25.70
2022-08-05T01:41:18.156Z,25.70
2022-08-05T01:43:52.110Z,25.70
2022-08-05T01:46:41.447Z,25.70
2022-08-05T01:49:23.619Z,25.70
2022-08-05T01:51:58.412Z,25.70
2022-08-05T01:54:30.128Z,25.70
2022-08-05T01:58:11.256Z,25.60
2022-08-05T01:59:48.359Z,25.60
2022-08-05T02:02:17.747Z,25.60
2022-08-05T02:04:49.525Z,25.60
2022-08-05T02:07:22.077Z,25.60
2022-08-05T02:09:52.971Z,25.60
2022-08-05T02:12:25.433Z,25.60
2022-08-05T02:15:12.229Z,25.60
2022-08-05T02:18:33.134Z,25.60
2022-08-05T02:20:54.042Z,25.60
2022-08-05T02:23:33.590Z,25.50
2022-08-05T02:26:04.884Z,25.50
2022-08-05T02:28:38.430Z,25.60
2022-08-05T02:31:21.070Z,25.60
2022-08-05T02:33:57.346Z,25.60
2022-08-05T02:36:27.252Z,25.60
2022-08-05T02:38:56.854Z,25.60
2022-08-05T02:41:28.357Z,25.60
2022-08-05T02:44:13.052Z,25.60
2022-08-05T02:46:53.738Z,25.60
2022-08-05T02:49:36.587Z,25.60
2022-08-05T02:52:30.051Z,25.60
2022-08-05T02:55:01.789Z,25.60
2022-08-05T02:58:11.485Z,25.60
2022-08-05T03:00:20.084Z,25.60
2022-08-05T03:02:47.947Z,25.60
2022-08-05T03:05:15.999Z,25.60
2022-08-05T03:08:04.510Z,25.60
2022-08-05T03:10:31.001Z,25.60
2022-08-05T03:15:24.385Z,25.60
2022-08-05T03:17:57.671Z,25.60
2022-08-05T03:20:25.016Z,25.70
2022-08-05T03:22:53.010Z,25.60
2022-08-05T03:25:33.878Z,25.60
2022-08-05T03:28:11.149Z,25.60
2022-08-05T03:30:42.275Z,25.60
2022-08-05T03:33:09.578Z,25.60
2022-08-05T03:35:40.815Z,25.60
2022-08-05T03:38:12.294Z,25.60
2022-08-05T03:40:48.681Z,25.60
2022-08-05T03:44:09.870Z,25.60
2022-08-05T03:46:04.787Z,25.60
2022-08-05T03:48:35.068Z,25.60
2022-08-05T03:52:39.329Z,25.60
2022-08-05T03:56:01.591Z,25.60
2022-08-05T03:56:59.887Z,25.60
2022-08-05T03:59:47.132Z,25.60
2022-08-05T04:02:37.942Z,25.60
2022-08-05T04:05:10.373Z,25.60
2022-08-05T04:07:58.211Z,25.60
2022-08-05T04:10:28.415Z,25.60
2022-08-05T04:12:59.334Z,25.60
2022-08-05T04:15:27.792Z,25.50
2022-08-05T04:18:03.844Z,25.60
2022-08-05T04:20:33.925Z,25.60
2022-08-05T04:23:00.648Z,25.60
2022-08-05T04:25:57.370Z,25.60
2022-08-05T04:28:15.115Z,25.60
2022-08-05T04:30:44.427Z,25.60
2022-08-05T04:33:12.527Z,25.60
2022-08-05T04:36:16.321Z,25.60
2022-08-05T04:38:40.004Z,25.60
2022-08-05T04:41:07.571Z,25.60
2022-08-05T04:43:37.776Z,25.50
2022-08-05T04:46:07.623Z,25.50
2022-08-05T04:48:34.388Z,25.50
2022-08-05T04:51:03.623Z,25.50
2022-08-05T04:53:38.579Z,25.50
2022-08-05T04:56:33.050Z,25.50
2022-08-05T04:58:54.289Z,25.50
2022-08-05T05:02:07.899Z,25.50
2022-08-05T05:04:08.284Z,25.50
2022-08-05T05:06:44.200Z,25.50
2022-08-05T05:09:14.138Z,25.50
2022-08-05T05:11:54.571Z,25.50
2022-08-05T05:14:31.419Z,25.40
2022-08-05T05:17:03.399Z,25.50
2022-08-05T05:19:37.273Z,25.40
2022-08-05T05:22:23.571Z,25.40
2022-08-05T05:25:00.002Z,25.40
2022-08-05T05:27:41.541Z,25.40
2022-08-05T05:30:29.720Z,25.40
2022-08-05T05:33:00.224Z,25.40
2022-08-05T05:35:34.309Z,25.40
2022-08-05T05:38:13.364Z,25.40
2022-08-05T05:40:49.730Z,25.40
2022-08-05T05:43:22.424Z,25.30
2022-08-05T05:46:12.223Z,25.30
2022-08-05T05:48:44.002Z,25.30
2022-08-05T05:51:15.511Z,25.30
2022-08-05T05:53:46.052Z,25.30
2022-08-05T05:56:34.965Z,25.30
2022-08-05T05:59:05.439Z,25.30
2022-08-05T06:01:38.904Z,25.30
2022-08-05T06:04:07.865Z,25.30
2022-08-05T06:06:35.219Z,25.20
2022-08-05T06:09:05.670Z,25.20
2022-08-05T06:11:35.301Z,25.20
2022-08-05T06:14:06.212Z,25.10
2022-08-05T06:16:36.989Z,25.10
2022-08-05T06:19:05.783Z,24.90
2022-08-05T06:21:36.734Z,24.90
2022-08-05T06:24:11.358Z,24.80
2022-08-05T06:26:51.290Z,24.80
2022-08-05T06:29:43.018Z,24.70
2022-08-05T06:32:06.003Z,24.60
2022-08-05T06:34:48.625Z,24.60
2022-08-05T06:37:52.332Z,24.60
2022-08-05T06:40:07.792Z,24.50
2022-08-05T06:42:34.726Z,24.50
2022-08-05T06:45:05.508Z,24.40
2022-08-05T06:48:44.433Z,24.40
2022-08-05T06:50:21.956Z,24.40
2022-08-05T06:53:03.605Z,24.40
2022-08-05T06:55:36.369Z,24.40
2022-08-05T07:00:51.041Z,24.40
2022-08-05T07:03:18.185Z,24.20
2022-08-05T07:10:53.140Z,24.10
2022-08-05T07:13:58.408Z,24.10
2022-08-05T07:17:59.331Z,24.10
2022-08-05T07:22:28.976Z,24.00
2022-08-05T07:25:23.685Z,24.00
2022-08-05T07:27:58.180Z,24.00
2022-08-05T07:30:34.449Z,24.00
2022-08-05T07:33:09.616Z,24.00
2022-08-05T07:36:03.191Z,23.90
2022-08-05T07:38:33.210Z,23.90
2022-08-05T07:42:07.128Z,23.90
2022-08-05T07:43:55.128Z,23.90
2022-08-05T07:46:25.983Z,23.90
2022-08-05T07:49:02.811Z,23.90
2022-08-05T07:51:36.821Z,23.90
2022-08-05T07:54:05.125Z,23.90
2022-08-05T07:57:00.517Z,23.90
2022-08-05T07:59:21.893Z,23.90
2022-08-05T08:01:52.465Z,23.90
2022-08-05T08:04:37.285Z,23.90
2022-08-05T08:07:05.420Z,23.90
2022-08-05T08:09:34.280Z,24.00
2022-08-05T08:12:09.063Z,24.00
2022-08-05T08:14:42.416Z,24.00
2022-08-05T08:17:16.277Z,24.00
2022-08-05T08:20:22.604Z,24.00
2022-08-05T08:22:32.587Z,24.00
2022-08-05T08:25:03.200Z,24.00
2022-08-05T08:27:31.470Z,24.00
2022-08-05T08:30:20.233Z,24.00
2022-08-05T08:32:57.114Z,24.00
2022-08-05T08:35:26.548Z,24.10
2022-08-05T08:37:54.445Z,24.10
2022-08-05T08:40:26.846Z,24.30
2022-08-05T08:42:54.803Z,24.30
2022-08-05T08:45:27.119Z,24.40
2022-08-05T08:48:12.695Z,24.40
2022-08-05T08:51:23.252Z,24.40
2022-08-05T08:53:37.346Z,24.50
2022-08-05T08:56:06.176Z,24.50
2022-08-05T08:58:37.562Z,24.50
2022-08-05T09:01:15.785Z,24.60
2022-08-05T09:03:54.352Z,24.60
2022-08-05T09:06:30.070Z,24.60
2022-08-05T09:09:00.615Z,24.70
2022-08-05T09:11:51.276Z,24.70
2022-08-05T09:14:58.375Z,24.70
2022-08-05T09:17:04.294Z,24.80
2022-08-05T09:19:36.262Z,24.80
2022-08-05T09:22:30.837Z,24.80
2022-08-05T09:24:58.763Z,24.80
2022-08-05T09:28:03.847Z,24.90
2022-08-05T09:30:23.547Z,24.90
2022-08-05T09:32:51.130Z,24.90
2022-08-05T09:35:26.925Z,24.90
2022-08-05T09:38:17.046Z,24.90
2022-08-05T09:40:52.022Z,24.90
2022-08-05T09:43:40.950Z,24.90
2022-08-05T09:46:28.026Z,25.00
2022-08-05T09:49:07.192Z,25.00
2022-08-05T09:51:38.199Z,25.00
2022-08-05T09:54:09.459Z,25.10
2022-08-05T09:56:38.939Z,25.00
2022-08-05T09:59:08.621Z,25.10
2022-08-05T10:01:40.016Z,25.10
2022-08-05T10:04:16.114Z,25.10
2022-08-05T10:06:59.336Z,25.10
2022-08-05T10:09:28.173Z,25.10
2022-08-05T10:12:30.547Z,25.10
2022-08-05T10:15:20.527Z,25.00
2022-08-05T10:18:05.994Z,25.10
2022-08-05T10:20:35.975Z,25.10
2022-08-05T10:23:03.344Z,25.10
2022-08-05T10:25:30.258Z,25.10
2022-08-05T10:28:13.105Z,25.10
2022-08-05T10:32:53.303Z,25.10
2022-08-05T10:33:35.133Z,25.10
2022-08-05T10:36:04.420Z,25.10
2022-08-05T10:38:33.435Z,25.00
2022-08-05T10:41:23.314Z,25.00
2022-08-05T10:44:01.340Z,25.00
2022-08-05T10:46:54.314Z,25.00
2022-08-05T10:49:26.718Z,25.00
2022-08-05T10:52:00.195Z,25.00
2022-08-05T10:54:56.304Z,25.00
2022-08-05T10:57:32.446Z,25.00
2022-08-05T11:00:20.073Z,25.00
2022-08-05T11:03:25.915Z,25.00
2022-08-05T11:06:03.713Z,25.00
2022-08-05T11:08:37.261Z,25.00
2022-08-05T11:11:44.479Z,25.00
2022-08-05T11:15:01.033Z,25.00
2022-08-05T11:17:59.485Z,25.00
2022-08-05T11:20:34.500Z,25.00
2022-08-05T11:24:03.782Z,25.00
2022-08-05T11:26:28.526Z,25.00
2022-08-05T11:29:06.868Z,25.00
2022-08-05T11:31:54.051Z,24.90
2022-08-05T11:34:51.144Z,24.90
2022-08-05T11:38:29.466Z,24.90
2022-08-05T11:41:03.465Z,25.00
2022-08-05T11:44:04.841Z,25.00
2022-08-05T11:46:37.491Z,25.00
2022-08-05T11:49:08.030Z,25.10
2022-08-05T11:51:44.571Z,25.00
2022-08-05T11:54:33.296Z,25.00
2022-08-05T11:57:07.687Z,25.00
2022-08-05T11:59:50.671Z,25.00
2022-08-05T12:02:24.207Z,25.00
2022-08-05T12:04:59.882Z,25.00
2022-08-05T12:08:03.577Z,25.00
2022-08-05T12:10:21.764Z,25.00
2022-08-05T12:12:59.834Z,25.00
2022-08-05T12:15:35.852Z,25.00
2022-08-05T12:18:11.131Z,24.90
2022-08-05T12:20:39.413Z,25.00
2022-08-05T12:23:13.672Z,24.90
2022-08-05T12:25:56.614Z,24.90
2022-08-05T12:28:31.412Z,25.00
2022-08-05T12:31:02.377Z,24.90
2022-08-05T12:33:36.333Z,25.00
2022-08-05T12:36:08.558Z,25.00
2022-08-05T12:38:40.363Z,25.00
2022-08-05T12:41:13.974Z,24.90
2022-08-05T12:44:04.236Z,24.90
2022-08-05T12:46:32.589Z,24.90
2022-08-05T12:49:14.610Z,24.90
2022-08-05T12:52:14.425Z,24.90
2022-08-05T12:54:49.712Z,24.90
2022-08-05T12:57:18.987Z,24.90
2022-08-05T13:01:57.318Z,25.00
2022-08-05T13:02:42.132Z,25.00
2022-08-05T13:05:14.735Z,25.00
2022-08-05T13:08:00.471Z,25.00
2022-08-05T13:10:31.378Z,25.00
2022-08-05T13:12:58.761Z,25.00
2022-08-05T13:15:41.709Z,25.00
2022-08-05T13:18:19.495Z,25.10
2022-08-05T13:20:47.136Z,25.10
2022-08-05T13:23:13.825Z,25.10
2022-08-05T13:25:51.755Z,25.10
2022-08-05T13:28:26.007Z,25.10
2022-08-05T13:30:53.189Z,25.10
2022-08-05T13:34:21.797Z,25.10
2022-08-05T13:36:09.235Z,25.10
2022-08-05T13:38:38.447Z,25.20
2022-08-05T13:41:12.198Z,25.20
2022-08-05T13:43:44.304Z,25.20
2022-08-05T13:46:13.464Z,25.20
2022-08-05T13:48:58.871Z,25.20
2022-08-05T13:51:40.034Z,25.20
2022-08-05T13:54:12.594Z,25.20
2022-08-05T13:56:44.871Z,25.20
2022-08-05T13:59:20.326Z,25.20
2022-08-05T14:01:59.151Z,25.20
2022-08-05T14:04:51.314Z,25.20
2022-08-05T14:08:00.456Z,25.20
2022-08-05T14:10:32.654Z,25.30
2022-08-05T14:13:00.112Z,25.30
2022-08-05T14:16:04.935Z,25.30
2022-08-05T14:18:18.436Z,25.30
2022-08-05T14:20:52.955Z,25.30
2022-08-05T14:23:24.783Z,25.30
2022-08-05T14:25:54.617Z,25.30
2022-08-05T14:28:27.833Z,25.30
2022-08-05T14:30:55.649Z,25.30
2022-08-05T14:33:24.609Z,25.30
2022-08-05T14:35:53.938Z,25.30
2022-08-05T14:38:31.807Z,25.30
2022-08-05T14:41:06.647Z,25.30
2022-08-05T14:44:00.211Z,25.30
2022-08-05T14:46:28.410Z,25.30
2022-08-05T14:48:57.856Z,25.20
2022-08-05T14:51:30.699Z,25.20
2022-08-05T14:54:26.152Z,25.20
2022-08-05T14:56:46.906Z,25.20
2022-08-05T14:59:14.801Z,25.20
2022-08-05T15:01:48.915Z,25.20
2022-08-05T15:04:20.509Z,25.20
2022-08-05T15:06:50.857Z,25.20
2022-08-05T15:09:51.999Z,25.30
2022-08-05T15:12:17.037Z,25.20
2022-08-05T15:14:50.050Z,25.30
2022-08-05T15:17:44.470Z,25.30
2022-08-05T15:20:18.355Z,25.30
2022-08-05T15:22:52.324Z,25.30
2022-08-05T15:25:23.611Z,25.30
2022-08-05T15:28:13.282Z,25.30
2022-08-05T15:30:46.499Z,25.30
2022-08-05T15:33:56.821Z,25.30
2022-08-05T15:36:03.743Z,25.30
2022-08-05T15:38:35.308Z,25.30
2022-08-05T15:41:20.706Z,25.20
2022-08-05T15:43:50.077Z,25.20
2022-08-05T15:46:18.948Z,25.20
2022-08-05T15:48:52.764Z,25.20
2022-08-05T15:52:12.556Z,25.10
2022-08-05T15:54:16.586Z,25.10
2022-08-05T15:56:43.683Z,25.10
2022-08-05T15:59:19.825Z,25.10
2022-08-05T16:01:53.023Z,25.10
2022-08-05T16:04:25.604Z,25.10
2022-08-05T16:06:53.936Z,25.10
2022-08-05T16:09:24.948Z,25.00
2022-08-05T16:11:54.091Z,25.00
2022-08-05T16:14:22.390Z,25.00
2022-08-05T16:16:51.544Z,25.00
2022-08-05T16:19:25.322Z,25.00
2022-08-05T16:22:06.666Z,25.00
2022-08-05T16:24:39.722Z,25.00
2022-08-05T16:27:09.436Z,24.90
2022-08-05T16:29:37.340Z,24.90
2022-08-05T16:32:06.402Z,24.80
2022-08-05T16:34:33.529Z,24.80
2022-08-05T16:37:00.277Z,24.80
2022-08-05T16:40:05.630Z,24.80
2022-08-05T16:42:28.303Z,24.70
2022-08-05T16:44:57.120Z,24.70
2022-08-05T16:47:28.576Z,24.70
2022-08-05T16:50:05.528Z,24.70
2022-08-05T16:52:32.739Z,24.60
2022-08-05T16:55:00.390Z,24.60
2022-08-05T16:57:42.975Z,24.50
2022-08-05T17:00:14.305Z,24.50
2022-08-05T17:03:09.291Z,24.50
2022-08-05T17:05:50.184Z,24.50
2022-08-05T17:08:33.386Z,24.50
2022-08-05T17:11:03.851Z,24.60
2022-08-05T17:13:37.703Z,24.60
2022-08-05T17:16:28.046Z,24.60
2022-08-05T17:18:55.585Z,24.60
2022-08-05T17:21:23.772Z,24.60
2022-08-05T17:24:04.877Z,24.60
2022-08-05T17:26:35.925Z,24.60
2022-08-05T17:29:04.219Z,24.60
2022-08-05T17:31:56.873Z,24.60
2022-08-05T17:34:21.379Z,24.60
2022-08-05T17:36:57.082Z,24.60
2022-08-05T17:39:34.640Z,24.60
2022-08-05T17:42:19.254Z,24.60
2022-08-05T17:44:50.087Z,24.60
2022-08-05T17:47:22.489Z,24.60
2022-08-05T17:49:59.556Z,24.60
2022-08-05T17:52:32.483Z,24.60
2022-08-05T17:54:59.945Z,24.60
2022-08-05T17:57:27.721Z,24.60
2022-08-05T18:00:03.792Z,24.60
2022-08-05T18:02:33.091Z,24.60
2022-08-05T18:05:06.325Z,24.60
2022-08-05T18:07:41.470Z,24.60
2022-08-05T18:10:11.535Z,24.60
2022-08-05T18:12:40.927Z,24.60
2022-08-05T18:15:08.896Z,24.60
2022-08-05T18:17:58.740Z,24.60
2022-08-05T18:20:29.653Z,24.60
2022-08-05T18:23:09.081Z,24.60
2022-08-05T18:25:45.582Z,24.50
2022-08-05T18:28:15.951Z,24.50
2022-08-05T18:30:45.176Z,24.50
2022-08-05T18:33:14.022Z,24.50
2022-08-05T18:36:01.235Z,24.50
2022-08-05T18:38:28.561Z,24.50
2022-08-05T18:41:58.087Z,24.50
2022-08-05T18:43:43.177Z,24.50
2022-08-05T18:46:19.909Z,24.50
2022-08-05T18:48:52.180Z,24.50
2022-08-05T18:52:05.982Z,24.50
2022-08-05T18:54:31.462Z,24.50
2022-08-05T18:57:01.770Z,24.50
2022-08-05T18:59:44.438Z,24.50
2022-08-05T19:02:26.884Z,24.50
2022-08-05T19:05:02.801Z,24.50
2022-08-05T19:07:46.411Z,24.50
2022-08-05T19:10:15.293Z,24.50
2022-08-05T19:12:43.294Z,24.50
2022-08-05T19:15:58.014Z,24.50
2022-08-05T19:18:08.476Z,24.40
2022-08-05T19:20:41.708Z,24.50
2022-08-05T19:24:03.707Z,24.40
2022-08-05T19:26:02.029Z,24.40
2022-08-05T19:28:30.780Z,24.40
2022-08-05T19:30:57.811Z,24.40
2022-08-05T19:33:35.558Z,24.40
2022-08-05T19:36:07.014Z,24.40
2022-08-05T19:38:37.262Z,24.40
2022-08-05T19:41:07.311Z,24.40
2022-08-05T19:44:05.699Z,24.40
2022-08-05T19:46:29.791Z,24.40
2022-08-05T19:49:03.025Z,24.40
2022-08-05T19:52:04.662Z,24.40
2022-08-05T19:54:30.990Z,24.40
2022-08-05T19:56:59.702Z,24.30
2022-08-05T19:59:55.394Z,24.40
2022-08-05T20:02:17.605Z,24.30
2022-08-05T20:04:46.070Z,24.30
2022-08-05T20:09:53.619Z,24.30
2022-08-05T20:12:23.509Z,24.30
2022-08-05T20:14:52.330Z,24.30
2022-08-05T20:17:23.423Z,24.30
2022-08-05T20:19:56.733Z,24.30
2022-08-05T20:22:27.292Z,24.20
2022-08-05T20:24:55.491Z,24.20
2022-08-05T20:27:26.720Z,24.20
2022-08-05T20:29:57.786Z,24.30
2022-08-05T20:32:26.626Z,24.20
2022-08-05T20:34:53.679Z,24.20
2022-08-05T20:38:04.883Z,24.20
2022-08-05T20:40:09.447Z,24.20
2022-08-05T20:42:36.478Z,24.20
2022-08-05T20:47:32.760Z,24.10
2022-08-05T20:50:02.038Z,23.90
2022-08-05T20:52:29.555Z,23.70
2022-08-05T20:54:59.151Z,23.60
2022-08-05T20:57:43.868Z,23.50
2022-08-05T21:03:06.948Z,23.40
2022-08-05T21:05:48.083Z,23.20
2022-08-05T21:08:32.854Z,23.20
2022-08-05T21:11:11.877Z,23.10
2022-08-05T21:16:29.050Z,23.00
2022-08-05T21:18:57.147Z,22.80
2022-08-05T21:21:27.331Z,22.90
2022-08-05T21:24:12.906Z,22.90
2022-08-05T21:26:41.389Z,23.00
2022-08-05T21:29:16.678Z,23.10
2022-08-05T21:31:43.863Z,23.10
2022-08-05T21:34:11.157Z,23.20
2022-08-05T21:36:38.420Z,23.20
2022-08-05T21:39:05.452Z,23.20
2022-08-05T21:41:35.715Z,23.20
2022-08-05T21:44:04.364Z,23.20
2022-08-05T21:46:34.299Z,23.20
2022-08-05T21:49:02.352Z,23.30
2022-08-05T21:52:21.813Z,23.30
2022-08-05T21:54:28.036Z,23.40
2022-08-05T21:57:29.743Z,23.50
2022-08-05T22:00:02.009Z,23.50
2022-08-05T22:02:31.382Z,23.60
2022-08-05T22:04:58.640Z,23.70
2022-08-05T22:07:40.042Z,23.70
2022-08-05T22:10:13.678Z,23.70
2022-08-05T22:12:44.729Z,23.80
2022-08-05T22:16:02.383Z,23.80
2022-08-05T22:18:06.214Z,23.80
2022-08-05T22:20:39.162Z,23.90
2022-08-05T22:24:02.701Z,23.90
2022-08-05T22:26:31.748Z,23.90
2022-08-05T22:29:00.402Z,23.90
2022-08-05T22:31:30.106Z,23.90
2022-08-05T22:34:01.157Z,23.90
2022-08-05T22:36:28.921Z,23.90
2022-08-05T22:38:56.846Z,23.90
2022-08-05T22:42:04.669Z,23.90
2022-08-05T22:44:11.851Z,23.90
2022-08-05T22:46:40.726Z,23.90
2022-08-05T22:50:18.390Z,23.90
2022-08-05T22:52:06.969Z,23.90
2022-08-05T22:54:39.709Z,23.90
2022-08-05T22:57:15.460Z,23.90
2022-08-05T22:59:44.085Z,23.90
2022-08-05T23:02:18.151Z,23.90
2022-08-05T23:04:51.247Z,23.90
2022-08-05T23:07:21.811Z,23.90
2022-08-05T23:09:57.806Z,23.90
2022-08-05T23:12:32.382Z,23.90
2022-08-05T23:15:03.392Z,23.90
2022-08-05T23:17:34.775Z,23.90
2022-08-05T23:20:17.513Z,23.90
2022-08-05T23:22:47.240Z,23.90
2022-08-05T23:25:17.690Z,23.90
2022-08-05T23:28:03.386Z,23.90
2022-08-05T23:30:40.381Z,24.00
2022-08-05T23:33:22.490Z,23.90
2022-08-05T23:35:55.100Z,23.90
2022-08-05T23:38:24.154Z,23.90
2022-08-05T23:40:52.636Z,23.90
2022-08-05T23:43:25.350Z,23.90
2022-08-05T23:46:05.113Z,24.00
2022-08-05T23:48:47.287Z,23.90
2022-08-05T23:51:53.775Z,24.00
2022-08-05T23:54:36.499Z,23.90
2022-08-05T23:57:06.626Z,23.90
